sensor_id;sensor_type;location;lat;lon;timestamp;temperature;humidity
33645;DHT22;19986;48.190;16.366;2022-08-25T00:01:17;25.10;99.90
33645;DHT22;19986;48.190;16.366;2022-08-25T00:03:44;25.10;99.90
33645;DHT22;19986;48.190;16.366;2022-08-25T00:06:10;25.10;99.90
33645;DHT22;19986;48.190;16.366;2022-08-25T00:08:37;25.10;99.90
33645;DHT22;19986;48.190;16.366;2022-08-25T00:11:10;25.10;99.90
33645;DHT22;19986;48.190;16.366;2022-08-25T00:13:39;25.00;99.90
33645;DHT22;19986;48.190;16.366;2022-08-25T00:16:08;25.00;99.90
33645;DHT22;19986;48.190;16.366;2022-08-25T00:18:34;24.90;99.90
33645;DHT22;19986;48.190;16.366;2022-08-25T00:21:02;24.90;99.90
33645;DHT22;19986;48.190;16.366;2022-08-25T00:23:28;24.80;99.90
33645;DHT22;19986;48.190;16.366;2022-08-25T00:25:54;24.90;99.90
33645;DHT22;19986;48.190;16.366;2022-08-25T00:28:21;24.80;99.90
33645;DHT22;19986;48.190;16.366;2022-08-25T00:30:46;24.90;99.90
33645;DHT22;19986;48.190;16.366;2022-08-25T00:33:15;24.90;99.90
33645;DHT22;19986;48.190;16.366;2022-08-25T00:35:43;24.90;99.90
33645;DHT22;19986;48.190;16.366;2022-08-25T00:38:10;24.90;99.90
33645;DHT22;19986;48.190;16.366;2022-08-25T00:40:37;24.90;99.90
33645;DHT22;19986;48.190;16.366;2022-08-25T00:43:07;24.90;99.90
33645;DHT22;19986;48.190;16.366;2022-08-25T00:45:34;24.90;99.90
33645;DHT22;19986;48.190;16.366;2022-08-25T00:48:00;24.80;99.90
33645;DHT22;19986;48.190;16.366;2022-08-25T00:50:30;24.80;99.90
33645;DHT22;19986;48.190;16.366;2022-08-25T00:53:03;24.70;99.90
33645;DHT22;19986;48.190;16.366;2022-08-25T00:55:35;24.70;99.90
33645;DHT22;19986;48.190;16.366;2022-08-25T00:58:12;24.80;99.90
33645;DHT22;19986;48.190;16.366;2022-08-25T01:00:44;24.80;99.90
33645;DHT22;19986;48.190;16.366;2022-08-25T01:03:11;24.90;99.90
33645;DHT22;19986;48.190;16.366;2022-08-25T01:05:38;24.90;99.90
33645;DHT22;19986;48.190;16.366;2022-08-25T01:08:06;24.90;99.90
33645;DHT22;19986;48.190;16.366;2022-08-25T01:10:38;24.90;99.90
33645;DHT22;19986;48.190;16.366;2022-08-25T01:13:31;24.90;99.90
33645;DHT22;19986;48.190;16.366;2022-08-25T01:15:58;24.80;99.90
33645;DHT22;19986;48.190;16.366;2022-08-25T01:18:25;24.80;99.90
33645;DHT22;19986;48.190;16.366;2022-08-25T01:20:56;24.80;99.90
33645;DHT22;19986;48.190;16.366;2022-08-25T01:23:26;24.80;99.90
33645;DHT22;19986;48.190;16.366;2022-08-25T01:28:30;24.80;99.90
33645;DHT22;19986;48.190;16.366;2022-08-25T01:30:56;24.80;99.90
33645;DHT22;19986;48.190;16.366;2022-08-25T01:33:22;24.80;99.90
33645;DHT22;19986;48.190;16.366;2022-08-25T01:35:48;24.80;99.90
33645;DHT22;19986;48.190;16.366;2022-08-25T01:38:15;24.80;99.90
33645;DHT22;19986;48.190;16.366;2022-08-25T01:40:41;24.90;99.90
33645;DHT22;19986;48.190;16.366;2022-08-25T01:45:42;24.90;99.90
33645;DHT22;19986;48.190;16.366;2022-08-25T01:48:09;24.90;99.90
33645;DHT22;19986;48.190;16.366;2022-08-25T01:50:38;24.90;99.90
33645;DHT22;19986;48.190;16.366;2022-08-25T01:53:17;24.90;99.90
33645;DHT22;19986;48.190;16.366;2022-08-25T01:55:43;24.80;99.90
33645;DHT22;19986;48.190;16.366;2022-08-25T01:58:22;24.70;99.90
33645;DHT22;19986;48.190;16.366;2022-08-25T02:00:50;24.70;99.90
33645;DHT22;19986;48.190;16.366;2022-08-25T02:03:17;24.70;99.90
33645;DHT22;19986;48.190;16.366;2022-08-25T02:05:43;24.70;99.90
33645;DHT22;19986;48.190;16.366;2022-08-25T02:08:10;24.70;99.90
33645;DHT22;19986;48.190;16.366;2022-08-25T02:10:37;24.80;99.90
33645;DHT22;19986;48.190;16.366;2022-08-25T02:13:05;24.70;99.90
33645;DHT22;19986;48.190;16.366;2022-08-25T02:15:38;24.70;99.90
33645;DHT22;19986;48.190;16.366;2022-08-25T02:18:04;24.80;99.90
33645;DHT22;19986;48.190;16.366;2022-08-25T02:20:31;24.80;99.90
33645;DHT22;19986;48.190;16.366;2022-08-25T02:22:58;24.70;99.90
33645;DHT22;19986;48.190;16.366;2022-08-25T02:25:24;24.70;99.90
33645;DHT22;19986;48.190;16.366;2022-08-25T02:27:51;24.80;99.90
33645;DHT22;19986;48.190;16.366;2022-08-25T02:30:18;24.70;99.90
33645;DHT22;19986;48.190;16.366;2022-08-25T02:32:44;24.80;99.90
33645;DHT22;19986;48.190;16.366;2022-08-25T02:35:10;24.80;99.90
33645;DHT22;19986;48.190;16.366;2022-08-25T02:37:37;24.80;99.90
33645;DHT22;19986;48.190;16.366;2022-08-25T02:40:05;24.90;99.90
33645;DHT22;19986;48.190;16.366;2022-08-25T02:42:32;24.90;99.90
33645;DHT22;19986;48.190;16.366;2022-08-25T02:44:58;24.90;99.90
33645;DHT22;19986;48.190;16.366;2022-08-25T02:47:24;24.90;99.90
33645;DHT22;19986;48.190;16.366;2022-08-25T02:49:50;24.90;99.90
33645;DHT22;19986;48.190;16.366;2022-08-25T02:52:17;24.90;99.90
33645;DHT22;19986;48.190;16.366;2022-08-25T02:54:46;24.90;99.90
33645;DHT22;19986;48.190;16.366;2022-08-25T02:57:12;25.00;99.90
33645;DHT22;19986;48.190;16.366;2022-08-25T02:59:40;24.90;99.90
33645;DHT22;19986;48.190;16.366;2022-08-25T03:02:06;24.90;99.90
33645;DHT22;19986;48.190;16.366;2022-08-25T03:04:32;24.90;99.90
33645;DHT22;19986;48.190;16.366;2022-08-25T03:06:58;24.90;99.90
33645;DHT22;19986;48.190;16.366;2022-08-25T03:09:27;24.90;99.90
33645;DHT22;19986;48.190;16.366;2022-08-25T03:11:53;24.90;99.90
33645;DHT22;19986;48.190;16.366;2022-08-25T03:14:19;24.90;99.90
33645;DHT22;19986;48.190;16.366;2022-08-25T03:16:44;24.90;99.90
33645;DHT22;19986;48.190;16.366;2022-08-25T03:19:11;24.90;99.90
33645;DHT22;19986;48.190;16.366;2022-08-25T03:21:37;24.90;99.90
33645;DHT22;19986;48.190;16.366;2022-08-25T03:24:04;24.80;99.90
33645;DHT22;19986;48.190;16.366;2022-08-25T03:26:30;24.90;99.90
33645;DHT22;19986;48.190;16.366;2022-08-25T03:29:16;24.90;99.90
33645;DHT22;19986;48.190;16.366;2022-08-25T03:31:43;24.80;99.90
33645;DHT22;19986;48.190;16.366;2022-08-25T03:34:14;24.90;99.90
33645;DHT22;19986;48.190;16.366;2022-08-25T03:36:42;24.80;99.90
33645;DHT22;19986;48.190;16.366;2022-08-25T03:39:09;24.80;99.90
33645;DHT22;19986;48.190;16.366;2022-08-25T03:41:35;24.80;99.90
33645;DHT22;19986;48.190;16.366;2022-08-25T03:44:03;24.80;99.90
33645;DHT22;19986;48.190;16.366;2022-08-25T03:46:43;24.80;99.90
33645;DHT22;19986;48.190;16.366;2022-08-25T03:49:12;24.80;99.90
33645;DHT22;19986;48.190;16.366;2022-08-25T03:51:44;24.70;99.90
33645;DHT22;19986;48.190;16.366;2022-08-25T03:54:14;24.70;99.90
33645;DHT22;19986;48.190;16.366;2022-08-25T03:56:40;24.70;99.90
33645;DHT22;19986;48.190;16.366;2022-08-25T03:59:06;24.60;99.90
33645;DHT22;19986;48.190;16.366;2022-08-25T04:01:42;24.60;99.90
33645;DHT22;19986;48.190;16.366;2022-08-25T04:04:10;24.70;99.90
33645;DHT22;19986;48.190;16.366;2022-08-25T04:06:41;24.70;99.90
33645;DHT22;19986;48.190;16.366;2022-08-25T04:09:08;24.70;99.90
33645;DHT22;19986;48.190;16.366;2022-08-25T04:11:34;24.70;99.90
33645;DHT22;19986;48.190;16.366;2022-08-25T04:14:03;24.70;99.90
33645;DHT22;19986;48.190;16.366;2022-08-25T04:16:32;24.60;99.90
33645;DHT22;19986;48.190;16.366;2022-08-25T04:19:00;24.60;99.90
33645;DHT22;19986;48.190;16.366;2022-08-25T04:21:27;24.50;99.90
33645;DHT22;19986;48.190;16.366;2022-08-25T04:23:54;24.50;99.90
33645;DHT22;19986;48.190;16.366;2022-08-25T04:26:29;24.50;99.90
33645;DHT22;19986;48.190;16.366;2022-08-25T04:28:59;24.50;99.90
33645;DHT22;19986;48.190;16.366;2022-08-25T04:31:26;24.50;99.90
33645;DHT22;19986;48.190;16.366;2022-08-25T04:33:52;24.50;99.90
33645;DHT22;19986;48.190;16.366;2022-08-25T04:36:19;24.60;99.90
33645;DHT22;19986;48.190;16.366;2022-08-25T04:38:46;24.60;99.90
33645;DHT22;19986;48.190;16.366;2022-08-25T04:41:14;24.60;99.90
33645;DHT22;19986;48.190;16.366;2022-08-25T04:43:42;24.60;99.90
33645;DHT22;19986;48.190;16.366;2022-08-25T04:46:27;24.60;99.90
33645;DHT22;19986;48.190;16.366;2022-08-25T04:48:54;24.50;99.90
33645;DHT22;19986;48.190;16.366;2022-08-25T04:51:23;24.60;99.90
33645;DHT22;19986;48.190;16.366;2022-08-25T04:53:51;24.60;99.90
33645;DHT22;19986;48.190;16.366;2022-08-25T04:56:20;24.60;99.90
33645;DHT22;19986;48.190;16.366;2022-08-25T04:58:46;24.60;99.90
33645;DHT22;19986;48.190;16.366;2022-08-25T05:01:14;24.60;99.90
33645;DHT22;19986;48.190;16.366;2022-08-25T05:03:45;24.60;99.90
33645;DHT22;19986;48.190;16.366;2022-08-25T05:06:12;24.60;99.90
33645;DHT22;19986;48.190;16.366;2022-08-25T05:08:38;24.70;99.90
33645;DHT22;19986;48.190;16.366;2022-08-25T05:11:09;24.70;99.90
33645;DHT22;19986;48.190;16.366;2022-08-25T05:13:38;24.70;99.90
33645;DHT22;19986;48.190;16.366;2022-08-25T05:16:04;24.70;99.90
33645;DHT22;19986;48.190;16.366;2022-08-25T05:18:31;24.70;99.90
33645;DHT22;19986;48.190;16.366;2022-08-25T05:21:02;24.70;99.90
33645;DHT22;19986;48.190;16.366;2022-08-25T05:23:29;24.70;99.90
33645;DHT22;19986;48.190;16.366;2022-08-25T05:25:59;24.70;99.90
33645;DHT22;19986;48.190;16.366;2022-08-25T05:28:26;24.80;99.90
33645;DHT22;19986;48.190;16.366;2022-08-25T05:30:57;24.70;99.90
33645;DHT22;19986;48.190;16.366;2022-08-25T05:33:24;24.70;99.90
33645;DHT22;19986;48.190;16.366;2022-08-25T05:35:50;24.70;99.90
33645;DHT22;19986;48.190;16.366;2022-08-25T05:38:16;24.70;99.90
33645;DHT22;19986;48.190;16.366;2022-08-25T05:40:42;24.70;99.90
33645;DHT22;19986;48.190;16.366;2022-08-25T05:43:08;24.80;99.90
33645;DHT22;19986;48.190;16.366;2022-08-25T05:45:34;24.90;99.90
33645;DHT22;19986;48.190;16.366;2022-08-25T05:48:00;24.90;99.90
33645;DHT22;19986;48.190;16.366;2022-08-25T05:50:27;24.80;99.90
33645;DHT22;19986;48.190;16.366;2022-08-25T05:52:53;24.80;99.90
33645;DHT22;19986;48.190;16.366;2022-08-25T05:55:19;24.90;99.90
33645;DHT22;19986;48.190;16.366;2022-08-25T05:57:45;24.90;99.90
33645;DHT22;19986;48.190;16.366;2022-08-25T06:00:12;24.80;99.90
33645;DHT22;19986;48.190;16.366;2022-08-25T06:02:38;24.70;99.90
33645;DHT22;19986;48.190;16.366;2022-08-25T06:05:21;24.70;99.90
33645;DHT22;19986;48.190;16.366;2022-08-25T06:07:49;24.60;99.90
33645;DHT22;19986;48.190;16.366;2022-08-25T06:10:17;24.60;99.90
33645;DHT22;19986;48.190;16.366;2022-08-25T06:12:44;24.60;99.90
33645;DHT22;19986;48.190;16.366;2022-08-25T06:15:16;24.70;99.90
33645;DHT22;19986;48.190;16.366;2022-08-25T06:17:42;24.80;99.90
33645;DHT22;19986;48.190;16.366;2022-08-25T06:20:12;24.90;99.90
33645;DHT22;19986;48.190;16.366;2022-08-25T06:22:39;24.90;99.90
33645;DHT22;19986;48.190;16.366;2022-08-25T06:25:06;25.10;99.90
33645;DHT22;19986;48.190;16.366;2022-08-25T06:27:34;25.10;99.90
33645;DHT22;19986;48.190;16.366;2022-08-25T06:30:00;25.20;99.90
33645;DHT22;19986;48.190;16.366;2022-08-25T06:32:32;25.10;99.90
33645;DHT22;19986;48.190;16.366;2022-08-25T06:35:01;25.10;99.90
33645;DHT22;19986;48.190;16.366;2022-08-25T06:37:27;25.00;99.90
33645;DHT22;19986;48.190;16.366;2022-08-25T06:39:53;25.10;99.90
33645;DHT22;19986;48.190;16.366;2022-08-25T06:42:20;25.10;99.90
33645;DHT22;19986;48.190;16.366;2022-08-25T06:44:47;25.10;99.90
33645;DHT22;19986;48.190;16.366;2022-08-25T06:47:15;25.10;99.90
33645;DHT22;19986;48.190;16.366;2022-08-25T06:49:42;25.10;99.90
33645;DHT22;19986;48.190;16.366;2022-08-25T06:52:08;25.20;99.90
33645;DHT22;19986;48.190;16.366;2022-08-25T06:54:34;25.20;99.90
33645;DHT22;19986;48.190;16.366;2022-08-25T06:57:00;25.20;99.90
33645;DHT22;19986;48.190;16.366;2022-08-25T06:59:26;25.20;99.90
33645;DHT22;19986;48.190;16.366;2022-08-25T07:01:52;25.20;99.90
33645;DHT22;19986;48.190;16.366;2022-08-25T07:04:18;25.20;99.90
33645;DHT22;19986;48.190;16.366;2022-08-25T07:06:45;25.30;99.90
33645;DHT22;19986;48.190;16.366;2022-08-25T07:09:12;25.30;99.90
33645;DHT22;19986;48.190;16.366;2022-08-25T07:11:40;25.40;99.90
33645;DHT22;19986;48.190;16.366;2022-08-25T07:14:08;25.50;99.90
33645;DHT22;19986;48.190;16.366;2022-08-25T07:16:37;25.50;99.90
33645;DHT22;19986;48.190;16.366;2022-08-25T07:19:04;25.50;99.90
33645;DHT22;19986;48.190;16.366;2022-08-25T07:21:33;25.50;99.90
33645;DHT22;19986;48.190;16.366;2022-08-25T07:24:00;25.50;99.90
33645;DHT22;19986;48.190;16.366;2022-08-25T07:26:30;25.60;99.90
33645;DHT22;19986;48.190;16.366;2022-08-25T07:28:56;25.70;99.90
33645;DHT22;19986;48.190;16.366;2022-08-25T07:31:23;25.70;99.90
33645;DHT22;19986;48.190;16.366;2022-08-25T07:33:49;25.70;99.90
33645;DHT22;19986;48.190;16.366;2022-08-25T07:36:34;25.70;99.90
33645;DHT22;19986;48.190;16.366;2022-08-25T07:39:02;25.70;99.90
33645;DHT22;19986;48.190;16.366;2022-08-25T07:41:34;25.90;99.90
33645;DHT22;19986;48.190;16.366;2022-08-25T07:44:00;25.80;99.90
33645;DHT22;19986;48.190;16.366;2022-08-25T07:46:26;25.80;99.90
33645;DHT22;19986;48.190;16.366;2022-08-25T07:48:53;25.80;99.90
33645;DHT22;19986;48.190;16.366;2022-08-25T07:51:19;25.70;99.90
33645;DHT22;19986;48.190;16.366;2022-08-25T07:53:45;25.60;99.90
33645;DHT22;19986;48.190;16.366;2022-08-25T07:56:13;25.60;99.90
33645;DHT22;19986;48.190;16.366;2022-08-25T07:58:40;25.70;99.90
33645;DHT22;19986;48.190;16.366;2022-08-25T08:01:11;25.70;99.90
33645;DHT22;19986;48.190;16.366;2022-08-25T08:03:42;25.90;99.90
33645;DHT22;19986;48.190;16.366;2022-08-25T08:06:14;26.10;99.90
33645;DHT22;19986;48.190;16.366;2022-08-25T08:08:42;26.20;99.90
33645;DHT22;19986;48.190;16.366;2022-08-25T08:11:29;26.30;99.90
33645;DHT22;19986;48.190;16.366;2022-08-25T08:13:56;26.50;99.90
33645;DHT22;19986;48.190;16.366;2022-08-25T08:16:27;26.60;99.90
33645;DHT22;19986;48.190;16.366;2022-08-25T08:18:54;26.70;99.90
33645;DHT22;19986;48.190;16.366;2022-08-25T08:21:27;26.80;99.90
33645;DHT22;19986;48.190;16.366;2022-08-25T08:23:56;26.70;99.90
33645;DHT22;19986;48.190;16.366;2022-08-25T08:26:23;26.90;99.90
33645;DHT22;19986;48.190;16.366;2022-08-25T08:28:49;27.10;99.90
33645;DHT22;19986;48.190;16.366;2022-08-25T08:31:18;27.30;99.90
33645;DHT22;19986;48.190;16.366;2022-08-25T08:33:45;27.60;99.90
33645;DHT22;19986;48.190;16.366;2022-08-25T08:36:12;27.90;99.90
33645;DHT22;19986;48.190;16.366;2022-08-25T08:38:39;28.20;99.90
33645;DHT22;19986;48.190;16.366;2022-08-25T08:44:31;28.70;99.90
33645;DHT22;19986;48.190;16.366;2022-08-25T08:50:28;28.90;99.90
33645;DHT22;19986;48.190;16.366;2022-08-25T08:53:13;28.80;99.90
33645;DHT22;19986;48.190;16.366;2022-08-25T08:55:47;28.70;99.90
33645;DHT22;19986;48.190;16.366;2022-08-25T09:00:52;28.40;99.90
33645;DHT22;19986;48.190;16.366;2022-08-25T09:06:31;28.30;99.90
33645;DHT22;19986;48.190;16.366;2022-08-25T09:09:04;28.30;99.90
33645;DHT22;19986;48.190;16.366;2022-08-25T09:12:07;28.30;99.90
33645;DHT22;19986;48.190;16.366;2022-08-25T09:22:51;28.80;99.90
33645;DHT22;19986;48.190;16.366;2022-08-25T09:25:49;28.90;99.90
33645;DHT22;19986;48.190;16.366;2022-08-25T09:33:44;29.00;99.90
33645;DHT22;19986;48.190;16.366;2022-08-25T09:36:10;29.00;99.90
33645;DHT22;19986;48.190;16.366;2022-08-25T09:38:36;29.10;99.90
33645;DHT22;19986;48.190;16.366;2022-08-25T09:41:03;29.30;99.90
33645;DHT22;19986;48.190;16.366;2022-08-25T09:43:34;29.20;99.90
33645;DHT22;19986;48.190;16.366;2022-08-25T09:48:33;29.50;99.90
33645;DHT22;19986;48.190;16.366;2022-08-25T09:56:30;30.00;99.90
33645;DHT22;19986;48.190;16.366;2022-08-25T09:59:29;30.10;99.90
33645;DHT22;19986;48.190;16.366;2022-08-25T10:02:00;30.10;99.90
33645;DHT22;19986;48.190;16.366;2022-08-25T10:04:32;30.10;99.90
33645;DHT22;19986;48.190;16.366;2022-08-25T10:07:01;30.10;99.90
33645;DHT22;19986;48.190;16.366;2022-08-25T10:09:33;30.20;99.90
33645;DHT22;19986;48.190;16.366;2022-08-25T10:12:00;30.30;99.90
33645;DHT22;19986;48.190;16.366;2022-08-25T10:14:34;30.20;99.90
33645;DHT22;19986;48.190;16.366;2022-08-25T10:19:43;30.20;99.90
33645;DHT22;19986;48.190;16.366;2022-08-25T10:24:39;30.20;99.90
33645;DHT22;19986;48.190;16.366;2022-08-25T10:30:18;30.60;99.90
33645;DHT22;19986;48.190;16.366;2022-08-25T10:41:06;29.90;99.90
33645;DHT22;19986;48.190;16.366;2022-08-25T10:43:43;29.80;99.90
33645;DHT22;19986;48.190;16.366;2022-08-25T10:49:20;29.80;99.90
33645;DHT22;19986;48.190;16.366;2022-08-25T10:52:02;29.80;99.90
33645;DHT22;19986;48.190;16.366;2022-08-25T10:54:52;29.80;99.90
33645;DHT22;19986;48.190;16.366;2022-08-25T10:57:42;29.90;99.90
33645;DHT22;19986;48.190;16.366;2022-08-25T11:00:14;31.20;99.90
33645;DHT22;19986;48.190;16.366;2022-08-25T11:03:14;33.10;99.90
33645;DHT22;19986;48.190;16.366;2022-08-25T11:05:54;34.90;99.90
33645;DHT22;19986;48.190;16.366;2022-08-25T11:08:35;36.00;99.90
33645;DHT22;19986;48.190;16.366;2022-08-25T11:16:17;35.90;99.90
33645;DHT22;19986;48.190;16.366;2022-08-25T11:18:56;37.00;99.90
33645;DHT22;19986;48.190;16.366;2022-08-25T11:21:35;37.90;98.20
33645;DHT22;19986;48.190;16.366;2022-08-25T11:27:42;38.70;94.90
33645;DHT22;19986;48.190;16.366;2022-08-25T11:30:13;39.20;93.70
33645;DHT22;19986;48.190;16.366;2022-08-25T11:32:44;39.50;93.00
33645;DHT22;19986;48.190;16.366;2022-08-25T11:35:13;39.60;91.80
33645;DHT22;19986;48.190;16.366;2022-08-25T11:40:40;39.50;90.70
33645;DHT22;19986;48.190;16.366;2022-08-25T11:43:58;38.60;90.60
33645;DHT22;19986;48.190;16.366;2022-08-25T11:46:20;37.10;91.90
33645;DHT22;19986;48.190;16.366;2022-08-25T11:51:52;36.40;93.10
33645;DHT22;19986;48.190;16.366;2022-08-25T12:10:20;34.80;93.80
33645;DHT22;19986;48.190;16.366;2022-08-25T12:16:07;34.80;94.40
33645;DHT22;19986;48.190;16.366;2022-08-25T12:18:53;35.30;93.80
33645;DHT22;19986;48.190;16.366;2022-08-25T12:21:39;35.10;93.50
33645;DHT22;19986;48.190;16.366;2022-08-25T12:24:08;34.50;93.90
33645;DHT22;19986;48.190;16.366;2022-08-25T12:27:02;34.40;94.60
33645;DHT22;19986;48.190;16.366;2022-08-25T12:29:44;34.80;94.00
33645;DHT22;19986;48.190;16.366;2022-08-25T12:34:53;34.50;94.40
33645;DHT22;19986;48.190;16.366;2022-08-25T12:37:26;34.80;94.20
33645;DHT22;19986;48.190;16.366;2022-08-25T12:40:04;34.80;94.10
33645;DHT22;19986;48.190;16.366;2022-08-25T12:42:38;34.70;94.50
33645;DHT22;19986;48.190;16.366;2022-08-25T12:47:43;34.80;94.40
33645;DHT22;19986;48.190;16.366;2022-08-25T12:50:35;34.40;94.20
33645;DHT22;19986;48.190;16.366;2022-08-25T12:53:23;34.20;94.50
33645;DHT22;19986;48.190;16.366;2022-08-25T12:59:16;33.80;94.40
33645;DHT22;19986;48.190;16.366;2022-08-25T13:15:39;32.40;96.40
33645;DHT22;19986;48.190;16.366;2022-08-25T13:18:21;32.30;96.50
33645;DHT22;19986;48.190;16.366;2022-08-25T13:23:46;32.30;96.50
33645;DHT22;19986;48.190;16.366;2022-08-25T13:26:22;32.30;96.70
33645;DHT22;19986;48.190;16.366;2022-08-25T13:31:35;32.30;96.90
33645;DHT22;19986;48.190;16.366;2022-08-25T13:34:08;32.40;96.90
33645;DHT22;19986;48.190;16.366;2022-08-25T13:36:43;32.10;97.00
33645;DHT22;19986;48.190;16.366;2022-08-25T13:39:29;32.10;97.20
33645;DHT22;19986;48.190;16.366;2022-08-25T13:41:59;32.00;97.10
33645;DHT22;19986;48.190;16.366;2022-08-25T13:44:28;31.90;97.10
33645;DHT22;19986;48.190;16.366;2022-08-25T13:47:15;31.70;97.20
33645;DHT22;19986;48.190;16.366;2022-08-25T13:49:44;31.70;97.30
33645;DHT22;19986;48.190;16.366;2022-08-25T13:52:24;31.70;97.40
33645;DHT22;19986;48.190;16.366;2022-08-25T13:54:55;31.80;97.00
33645;DHT22;19986;48.190;16.366;2022-08-25T13:57:25;31.80;96.70
33645;DHT22;19986;48.190;16.366;2022-08-25T13:59:59;31.70;96.60
33645;DHT22;19986;48.190;16.366;2022-08-25T14:02:47;31.70;96.60
33645;DHT22;19986;48.190;16.366;2022-08-25T14:05:38;31.70;96.60
33645;DHT22;19986;48.190;16.366;2022-08-25T14:08:04;31.60;96.60
33645;DHT22;19986;48.190;16.366;2022-08-25T14:10:41;31.70;96.60
33645;DHT22;19986;48.190;16.366;2022-08-25T14:13:27;31.70;96.50
33645;DHT22;19986;48.190;16.366;2022-08-25T14:15:54;31.50;96.70
33645;DHT22;19986;48.190;16.366;2022-08-25T14:18:30;31.20;96.90
33645;DHT22;19986;48.190;16.366;2022-08-25T14:20:57;31.20;97.20
33645;DHT22;19986;48.190;16.366;2022-08-25T14:23:26;31.30;97.30
33645;DHT22;19986;48.190;16.366;2022-08-25T14:25:54;31.40;97.20
33645;DHT22;19986;48.190;16.366;2022-08-25T14:28:24;31.50;97.30
33645;DHT22;19986;48.190;16.366;2022-08-25T14:30:56;31.60;97.30
33645;DHT22;19986;48.190;16.366;2022-08-25T14:33:29;31.60;97.30
33645;DHT22;19986;48.190;16.366;2022-08-25T14:35:58;31.70;97.40
33645;DHT22;19986;48.190;16.366;2022-08-25T14:38:24;31.80;97.30
33645;DHT22;19986;48.190;16.366;2022-08-25T14:40:51;31.80;97.20
33645;DHT22;19986;48.190;16.366;2022-08-25T14:43:21;31.70;96.80
33645;DHT22;19986;48.190;16.366;2022-08-25T14:45:47;31.70;96.80
33645;DHT22;19986;48.190;16.366;2022-08-25T14:48:26;31.70;97.10
33645;DHT22;19986;48.190;16.366;2022-08-25T14:50:54;31.70;97.30
33645;DHT22;19986;48.190;16.366;2022-08-25T14:53:21;31.80;97.30
33645;DHT22;19986;48.190;16.366;2022-08-25T14:55:47;31.80;97.30
33645;DHT22;19986;48.190;16.366;2022-08-25T14:58:14;31.80;97.10
33645;DHT22;19986;48.190;16.366;2022-08-25T15:00:42;31.70;97.10
33645;DHT22;19986;48.190;16.366;2022-08-25T15:03:17;31.80;97.30
33645;DHT22;19986;48.190;16.366;2022-08-25T15:05:46;31.80;97.00
33645;DHT22;19986;48.190;16.366;2022-08-25T15:08:12;31.70;96.80
33645;DHT22;19986;48.190;16.366;2022-08-25T15:10:56;31.70;96.70
33645;DHT22;19986;48.190;16.366;2022-08-25T15:13:22;31.70;96.80
33645;DHT22;19986;48.190;16.366;2022-08-25T15:15:49;31.70;96.70
33645;DHT22;19986;48.190;16.366;2022-08-25T15:18:15;31.70;96.40
33645;DHT22;19986;48.190;16.366;2022-08-25T15:20:42;31.70;96.40
33645;DHT22;19986;48.190;16.366;2022-08-25T15:23:07;31.60;96.40
33645;DHT22;19986;48.190;16.366;2022-08-25T15:25:35;31.60;96.60
33645;DHT22;19986;48.190;16.366;2022-08-25T15:28:05;31.50;96.70
33645;DHT22;19986;48.190;16.366;2022-08-25T15:30:34;31.50;96.70
33645;DHT22;19986;48.190;16.366;2022-08-25T15:33:03;31.50;96.50
33645;DHT22;19986;48.190;16.366;2022-08-25T15:35:30;31.50;96.70
33645;DHT22;19986;48.190;16.366;2022-08-25T15:37:56;31.50;96.80
33645;DHT22;19986;48.190;16.366;2022-08-25T15:40:22;31.50;96.80
33645;DHT22;19986;48.190;16.366;2022-08-25T15:42:47;31.40;96.90
33645;DHT22;19986;48.190;16.366;2022-08-25T15:45:13;31.30;97.10
33645;DHT22;19986;48.190;16.366;2022-08-25T15:47:39;31.20;97.20
33645;DHT22;19986;48.190;16.366;2022-08-25T15:50:09;31.20;97.40
33645;DHT22;19986;48.190;16.366;2022-08-25T15:52:35;31.10;97.40
33645;DHT22;19986;48.190;16.366;2022-08-25T15:55:02;31.00;97.60
33645;DHT22;19986;48.190;16.366;2022-08-25T15:57:29;31.00;97.70
33645;DHT22;19986;48.190;16.366;2022-08-25T15:59:55;31.00;97.70
33645;DHT22;19986;48.190;16.366;2022-08-25T16:02:21;31.00;97.70
33645;DHT22;19986;48.190;16.366;2022-08-25T16:04:47;31.00;97.80
33645;DHT22;19986;48.190;16.366;2022-08-25T16:07:16;31.00;97.90
33645;DHT22;19986;48.190;16.366;2022-08-25T16:09:42;30.90;97.90
33645;DHT22;19986;48.190;16.366;2022-08-25T16:12:11;30.90;97.70
33645;DHT22;19986;48.190;16.366;2022-08-25T16:14:38;30.80;97.60
33645;DHT22;19986;48.190;16.366;2022-08-25T16:17:19;30.70;97.60
33645;DHT22;19986;48.190;16.366;2022-08-25T16:19:54;30.70;97.60
33645;DHT22;19986;48.190;16.366;2022-08-25T16:22:20;30.60;97.60
33645;DHT22;19986;48.190;16.366;2022-08-25T16:24:49;30.60;97.60
33645;DHT22;19986;48.190;16.366;2022-08-25T16:27:16;30.60;97.50
33645;DHT22;19986;48.190;16.366;2022-08-25T16:29:43;30.60;97.60
33645;DHT22;19986;48.190;16.366;2022-08-25T16:32:11;30.50;98.00
33645;DHT22;19986;48.190;16.366;2022-08-25T16:34:37;30.50;97.80
33645;DHT22;19986;48.190;16.366;2022-08-25T16:37:03;30.40;97.90
33645;DHT22;19986;48.190;16.366;2022-08-25T16:39:29;30.40;98.10
33645;DHT22;19986;48.190;16.366;2022-08-25T16:41:55;30.40;98.30
33645;DHT22;19986;48.190;16.366;2022-08-25T16:44:21;30.30;98.30
33645;DHT22;19986;48.190;16.366;2022-08-25T16:46:47;30.30;98.50
33645;DHT22;19986;48.190;16.366;2022-08-25T16:49:14;30.30;98.60
33645;DHT22;19986;48.190;16.366;2022-08-25T16:51:41;30.30;98.70
33645;DHT22;19986;48.190;16.366;2022-08-25T16:54:09;30.30;98.90
33645;DHT22;19986;48.190;16.366;2022-08-25T16:56:53;30.20;98.90
33645;DHT22;19986;48.190;16.366;2022-08-25T16:59:20;30.10;98.90
33645;DHT22;19986;48.190;16.366;2022-08-25T17:01:46;30.10;98.80
33645;DHT22;19986;48.190;16.366;2022-08-25T17:04:12;30.00;98.90
33645;DHT22;19986;48.190;16.366;2022-08-25T17:06:41;30.00;98.90
33645;DHT22;19986;48.190;16.366;2022-08-25T17:09:10;30.00;98.90
33645;DHT22;19986;48.190;16.366;2022-08-25T17:11:45;29.90;99.00
33645;DHT22;19986;48.190;16.366;2022-08-25T17:14:16;29.90;99.20
33645;DHT22;19986;48.190;16.366;2022-08-25T17:16:43;29.80;99.20
33645;DHT22;19986;48.190;16.366;2022-08-25T17:19:11;29.80;99.40
33645;DHT22;19986;48.190;16.366;2022-08-25T17:21:40;29.80;99.50
33645;DHT22;19986;48.190;16.366;2022-08-25T17:24:08;29.70;99.60
33645;DHT22;19986;48.190;16.366;2022-08-25T17:26:37;29.70;99.70
33645;DHT22;19986;48.190;16.366;2022-08-25T17:29:04;29.60;99.90
33645;DHT22;19986;48.190;16.366;2022-08-25T17:31:30;29.60;99.90
33645;DHT22;19986;48.190;16.366;2022-08-25T17:33:57;29.50;99.90